Time,TemperatureF,DewpointF,PressureIn,WindDirection,WindDirectionDegrees,WindSpeedMPH,WindSpeedGustMPH,Humidity,HourlyPrecipIn,Conditions,Clouds,dailyrainin,SoftwareType,DateUTC
2013-03-18 00:02:00,61.0,54.0,-100.00,SE,146,5.0,12.0,78,0.00,,,0.00,,2013-03-18 05:02:00,
2013-03-18 00:12:00,61.0,54.0,-100.00,SE,146,5.0,12.0,78,0.00,,,0.00,,2013-03-18 05:12:00,
2013-03-18 00:22:00,61.0,54.0,-100.00,NE,43,3.0,11.0,79,0.00,,,0.00,,2013-03-18 05:22:00,
2013-03-18 00:32:00,62.0,55.0,13.68,SSE,163,6.0,14.0,79,0.00,,,0.00,,2013-03-18 05:32:00,
2013-03-18 00:43:00,62.0,55.0,13.68,SSE,163,6.0,14.0,79,0.00,,,0.00,,2013-03-18 05:43:00,
2013-03-18 00:52:00,62.0,55.0,-100.00,SSW,198,3.0,16.0,79,0.00,,,0.00,,2013-03-18 05:52:00,
2013-03-18 01:02:00,62.0,56.0,-100.00,South,186,6.0,15.0,80,0.00,,,0.00,,2013-03-18 06:02:00,
2013-03-18 01:12:00,62.0,56.0,-100.00,South,186,6.0,15.0,80,0.00,,,0.00,,2013-03-18 06:12:00,
2013-03-18 01:22:00,62.0,56.0,0.67,SSE,153,4.0,14.0,80,0.00,,,0.00,,2013-03-18 06:22:00,
2013-03-18 01:32:00,62.0,56.0,3.31,SSW,207,6.0,13.0,81,0.00,,,0.00,,2013-03-18 06:32:00,
2013-03-18 01:42:00,62.0,56.0,3.31,SSW,207,6.0,13.0,81,0.00,,,0.00,,2013-03-18 06:42:00,
2013-03-18 01:52:00,62.0,56.0,2.31,SSW,196,6.0,17.0,82,0.00,,,0.00,,2013-03-18 06:52:00,
2013-03-18 02:02:00,62.0,57.0,-100.00,South,185,7.0,15.0,83,0.00,,,0.00,,2013-03-18 07:02:00,
2013-03-18 02:12:00,62.0,57.0,-100.00,South,185,7.0,15.0,83,0.00,,,0.00,,2013-03-18 07:12:00,
2013-03-18 02:22:00,62.0,57.0,29.67,SSW,198,6.0,14.0,83,0.00,,,0.00,,2013-03-18 07:22:00,
2013-03-18 02:32:00,62.0,57.0,3.30,South,189,4.0,11.0,84,0.00,,,0.00,,2013-03-18 07:32:00,
2013-03-18 02:42:00,62.0,57.0,3.30,South,189,4.0,11.0,84,0.00,,,0.00,,2013-03-18 07:42:00,
2013-03-18 02:52:00,62.0,57.0,3.30,South,171,6.0,17.0,84,0.00,,,0.00,,2013-03-18 07:52:00,
2013-03-18 03:02:00,62.0,57.0,3.30,SSW,200,6.0,14.0,84,0.00,,,0.00,,2013-03-18 08:02:00,
2013-03-18 03:12:00,62.0,57.0,3.30,SSW,200,6.0,14.0,84,0.00,,,0.00,,2013-03-18 08:12:00,
2013-03-18 03:22:00,62.0,57.0,3.30,SSE,167,5.0,12.0,84,0.00,,,0.00,,2013-03-18 08:22:00,
2013-03-18 03:32:00,62.0,57.0,3.30,SW,236,4.0,13.0,84,0.00,,,0.00,,2013-03-18 08:32:00,
2013-03-18 03:43:00,62.0,57.0,3.30,SW,236,4.0,13.0,84,0.00,,,0.00,,2013-03-18 08:43:00,
2013-03-18 03:52:00,62.0,57.0,3.30,WSW,254,6.0,16.0,85,0.00,,,0.00,,2013-03-18 08:52:00,
2013-03-18 04:02:00,62.0,57.0,25.49,SW,219,7.0,14.0,85,0.00,,,0.00,,2013-03-18 09:02:00,
2013-03-18 04:12:00,62.0,57.0,25.49,SW,219,7.0,14.0,85,0.00,,,0.00,,2013-03-18 09:12:00,
2013-03-18 04:22:00,62.0,57.0,6.17,SSW,192,7.0,14.0,84,0.00,,,0.00,,2013-03-18 09:22:00,
2013-03-18 04:33:00,62.0,57.0,-100.00,South,182,7.0,13.0,84,0.00,,,0.00,,2013-03-18 09:33:00,
2013-03-18 04:43:00,62.0,57.0,-100.00,South,182,7.0,13.0,84,0.00,,,0.00,,2013-03-18 09:43:00,
2013-03-18 04:53:00,62.0,57.0,32.63,SSW,193,5.0,17.0,85,0.00,,,0.00,,2013-03-18 09:53:00,
2013-03-18 05:03:00,62.0,57.0,29.81,SW,217,5.0,17.0,85,0.00,,,0.00,,2013-03-18 10:03:00,
2013-03-18 05:12:00,62.0,57.0,29.81,SW,217,5.0,17.0,85,0.00,,,0.00,,2013-03-18 10:12:00,
2013-03-18 05:23:00,62.0,57.0,32.63,South,186,6.0,14.0,85,0.00,,,0.00,,2013-03-18 10:23:00,
2013-03-18 05:33:00,62.0,57.0,3.29,South,180,6.0,16.0,85,0.00,,,0.00,,2013-03-18 10:33:00,
2013-03-18 05:42:00,62.0,57.0,3.29,South,180,6.0,16.0,85,0.00,,,0.00,,2013-03-18 10:42:00,
2013-03-18 05:53:00,61.0,56.0,3.40,SSW,194,5.0,13.0,85,0.00,,,0.00,,2013-03-18 10:53:00,
2013-03-18 06:03:00,61.0,57.0,3.30,SSW,196,6.0,13.0,86,0.00,,,0.00,,2013-03-18 11:03:00,
2013-03-18 06:12:00,61.0,57.0,3.30,SSW,196,6.0,13.0,86,0.00,,,0.00,,2013-03-18 11:12:00,
2013-03-18 06:22:00,61.0,57.0,3.30,West,269,8.0,14.0,86,0.00,,,0.00,,2013-03-18 11:22:00,
2013-03-18 06:32:00,61.0,57.0,3.30,South,184,4.0,12.0,86,0.00,,,0.00,,2013-03-18 11:32:00,
2013-03-18 06:42:00,61.0,57.0,3.30,South,184,4.0,12.0,86,0.00,,,0.00,,2013-03-18 11:42:00,
2013-03-18 06:52:00,61.0,57.0,3.40,SSW,212,6.0,12.0,87,0.00,,,0.00,,2013-03-18 11:52:00,
2013-03-18 07:02:00,60.0,57.0,3.30,SSW,207,6.0,17.0,89,0.00,,,0.00,,2013-03-18 12:02:00,
2013-03-18 07:12:00,60.0,57.0,3.30,SSW,207,6.0,17.0,89,0.00,,,0.00,,2013-03-18 12:12:00,
2013-03-18 07:22:00,60.0,57.0,4.66,SSE,165,5.0,12.0,89,0.00,,,0.00,,2013-03-18 12:22:00,
2013-03-18 07:32:00,60.0,57.0,29.31,WSW,258,5.0,9.0,90,0.00,,,0.00,,2013-03-18 12:32:00,
2013-03-18 07:42:00,60.0,57.0,29.31,WSW,258,5.0,9.0,90,0.00,,,0.00,,2013-03-18 12:42:00,
2013-03-18 07:52:00,60.0,57.0,4.66,SSE,161,4.0,11.0,89,0.00,,,0.00,,2013-03-18 12:52:00,
2013-03-18 08:02:00,60.0,57.0,26.79,SSW,196,2.0,13.0,89,0.00,,,0.00,,2013-03-18 13:02:00,
2013-03-18 08:12:00,60.0,57.0,26.79,SSW,196,2.0,13.0,89,0.00,,,0.00,,2013-03-18 13:12:00,
2013-03-18 08:22:00,60.0,57.0,26.79,South,186,4.0,12.0,90,0.00,,,0.00,,2013-03-18 13:22:00,
2013-03-18 08:32:00,60.0,57.0,3.40,South,184,4.0,11.0,90,0.00,,,0.00,,2013-03-18 13:32:00,
2013-03-18 08:42:00,60.0,57.0,3.40,South,184,4.0,11.0,90,0.00,,,0.00,,2013-03-18 13:42:00,
2013-03-18 08:52:00,60.0,57.0,3.30,SSW,192,4.0,12.0,90,0.00,,,0.00,,2013-03-18 13:52:00,
2013-03-18 09:02:00,61.0,58.0,3.30,South,182,5.0,13.0,90,0.00,,,0.00,,2013-03-18 14:02:00,
2013-03-18 09:12:00,61.0,58.0,3.30,South,182,5.0,13.0,90,0.00,,,0.00,,2013-03-18 14:12:00,
2013-03-18 09:22:00,61.0,58.0,3.30,SSW,207,5.0,9.0,89,0.00,,,0.00,,2013-03-18 14:22:00,
2013-03-18 09:32:00,61.0,58.0,3.30,South,181,5.0,11.0,91,0.01,,,0.01,,2013-03-18 14:32:00,
2013-03-18 09:42:00,61.0,58.0,3.30,South,181,5.0,11.0,91,0.01,,,0.01,,2013-03-18 14:42:00,
2013-03-18 09:52:00,61.0,59.0,3.30,West,274,4.0,10.0,92,0.01,,,0.01,,2013-03-18 14:52:00,
2013-03-18 10:02:00,61.0,59.0,3.30,SSW,198,5.0,17.0,92,0.01,,,0.01,,2013-03-18 15:02:00,
2013-03-18 10:12:00,61.0,59.0,3.30,SSW,198,5.0,17.0,92,0.01,,,0.01,,2013-03-18 15:12:00,
2013-03-18 10:22:00,61.0,59.0,3.30,South,184,3.0,13.0,92,0.01,,,0.01,,2013-03-18 15:22:00,
2013-03-18 10:33:00,61.0,59.0,3.30,SSW,204,6.0,16.0,92,0.00,,,0.01,,2013-03-18 15:33:00,
2013-03-18 10:43:00,61.0,59.0,3.30,SSW,204,6.0,16.0,92,0.00,,,0.01,,2013-03-18 15:43:00,
2013-03-18 10:52:00,61.0,59.0,3.30,SW,221,4.0,14.0,93,0.00,,,0.01,,2013-03-18 15:52:00,
2013-03-18 11:03:00,61.0,59.0,3.30,SSE,165,4.0,12.0,93,0.01,,,0.02,,2013-03-18 16:03:00,
2013-03-18 11:12:00,61.0,59.0,3.30,SSE,165,4.0,12.0,93,0.01,,,0.02,,2013-03-18 16:12:00,
2013-03-18 11:22:00,61.0,59.0,3.30,South,179,4.0,9.0,94,0.01,,,0.02,,2013-03-18 16:22:00,
2013-03-18 11:32:00,61.0,59.0,3.30,South,179,4.0,9.0,94,0.01,,,0.02,,2013-03-18 16:32:00,
2013-03-18 11:42:00,61.0,59.0,3.30,South,179,4.0,9.0,94,0.01,,,0.02,,2013-03-18 16:42:00,
2013-03-18 11:52:00,61.0,59.0,3.30,South,179,4.0,9.0,94,0.01,,,0.02,,2013-03-18 16:52:00,
2013-03-18 13:22:00,61.0,60.0,3.30,NW,322,3.0,7.0,97,0.06,,,0.09,,2013-03-18 18:22:00,
2013-03-18 13:32:00,58.0,56.0,26.79,WNW,302,0.0,5.0,94,0.13,,,0.16,,2013-03-18 18:32:00,
2013-03-18 13:42:00,58.0,56.0,26.79,WNW,302,0.0,5.0,94,0.13,,,0.16,,2013-03-18 18:42:00,
2013-03-18 13:52:00,57.0,56.0,32.59,SW,228,2.0,8.0,95,0.19,,,0.23,,2013-03-18 18:52:00,
2013-03-18 14:02:00,57.0,56.0,19.88,West,268,0.0,4.0,96,0.23,,,0.31,,2013-03-18 19:02:00,
2013-03-18 14:12:00,57.0,56.0,19.88,West,268,0.0,4.0,96,0.23,,,0.31,,2013-03-18 19:12:00,
2013-03-18 14:22:00,58.0,57.0,3.37,WSW,238,0.0,5.0,96,0.29,,,0.38,,2013-03-18 19:22:00,
2013-03-18 14:32:00,58.0,57.0,2.31,SE,128,0.0,5.0,97,0.28,,,0.44,,2013-03-18 19:32:00,
2013-03-18 14:42:00,58.0,57.0,2.31,SE,128,0.0,5.0,97,0.28,,,0.44,,2013-03-18 19:42:00,
2013-03-18 14:52:00,59.0,58.0,-100.00,SW,223,2.0,5.0,97,0.26,,,0.49,,2013-03-18 19:52:00,
2013-03-18 15:02:00,59.0,58.0,-100.00,SSW,200,0.0,2.0,98,0.22,,,0.53,,2013-03-18 20:02:00,
2013-03-18 15:12:00,59.0,58.0,-100.00,SSW,200,0.0,2.0,98,0.22,,,0.53,,2013-03-18 20:12:00,
2013-03-18 15:22:00,59.0,58.0,3.30,West,261,12.0,26.0,97,0.19,,,0.57,,2013-03-18 20:22:00,
2013-03-18 15:32:00,54.0,53.0,3.30,NW,314,2.0,9.0,96,0.16,,,0.60,,2013-03-18 20:32:00,
2013-03-18 15:42:00,54.0,53.0,3.30,NW,314,2.0,9.0,96,0.16,,,0.60,,2013-03-18 20:42:00,
2013-03-18 15:52:00,54.0,53.0,3.30,NNW,338,3.0,10.0,97,0.15,,,0.64,,2013-03-18 20:52:00,
2013-03-18 16:02:00,55.0,54.0,3.30,WSW,240,3.0,8.0,97,0.14,,,0.67,,2013-03-18 21:02:00,
2013-03-18 16:12:00,55.0,54.0,3.30,WSW,240,3.0,8.0,97,0.14,,,0.67,,2013-03-18 21:12:00,
2013-03-18 16:22:00,54.0,53.0,3.30,SSE,167,1.0,5.0,97,0.13,,,0.70,,2013-03-18 21:22:00,
2013-03-18 16:32:00,54.0,53.0,3.30,South,175,1.0,10.0,97,0.13,,,0.73,,2013-03-18 21:32:00,
2013-03-18 16:42:00,54.0,53.0,3.30,South,175,1.0,10.0,97,0.13,,,0.73,,2013-03-18 21:42:00,
2013-03-18 16:53:00,54.0,53.0,3.30,SSE,166,3.0,8.0,97,0.12,,,0.76,,2013-03-18 21:53:00,
2013-03-18 17:03:00,55.0,54.0,3.30,SE,126,2.0,4.0,97,0.11,,,0.78,,2013-03-18 22:03:00,
2013-03-18 17:13:00,55.0,54.0,3.30,SE,126,2.0,4.0,97,0.11,,,0.78,,2013-03-18 22:13:00,
2013-03-18 17:23:00,55.0,54.0,3.30,SE,126,3.0,6.0,97,0.10,,,0.80,,2013-03-18 22:23:00,
2013-03-18 17:33:00,55.0,54.0,3.30,ESE,112,1.0,6.0,97,0.09,,,0.82,,2013-03-18 22:33:00,
2013-03-18 17:42:00,55.0,54.0,3.30,ESE,112,1.0,6.0,97,0.09,,,0.82,,2013-03-18 22:42:00,
2013-03-18 17:53:00,56.0,55.0,3.30,ENE,63,2.0,5.0,97,0.08,,,0.84,,2013-03-18 22:53:00,
2013-03-18 18:02:00,56.0,55.0,32.65,South,186,1.0,7.0,97,0.07,,,0.85,,2013-03-18 23:02:00,
2013-03-18 18:12:00,56.0,55.0,32.65,South,186,1.0,7.0,97,0.07,,,0.85,,2013-03-18 23:12:00,
2013-03-18 18:22:00,56.0,55.0,13.72,SSE,150,0.0,1.0,96,0.07,,,0.87,,2013-03-18 23:22:00,
2013-03-18 18:32:00,56.0,55.0,31.64,SSE,150,0.0,0.0,95,0.06,,,0.88,,2013-03-18 23:32:00,
2013-03-18 18:42:00,56.0,55.0,31.64,SSE,150,0.0,0.0,95,0.06,,,0.88,,2013-03-18 23:42:00,
2013-03-18 18:53:00,56.0,55.0,-100.00,SSE,150,0.0,1.0,95,0.06,,,0.90,,2013-03-18 23:53:00,
2013-03-18 19:02:00,55.0,54.0,32.63,WNW,288,0.0,3.0,95,0.05,,,0.90,,2013-03-19 00:02:00,
2013-03-18 19:12:00,55.0,54.0,32.63,WNW,288,0.0,3.0,95,0.05,,,0.90,,2013-03-19 00:12:00,
2013-03-18 19:22:00,55.0,54.0,9.12,SW,221,0.0,0.0,95,0.03,,,0.90,,2013-03-19 00:22:00,
2013-03-18 19:32:00,54.0,53.0,-100.00,SW,221,0.0,0.0,95,0.02,,,0.90,,2013-03-19 00:32:00,
2013-03-18 19:42:00,54.0,53.0,-100.00,SW,221,0.0,0.0,95,0.02,,,0.90,,2013-03-19 00:42:00,
2013-03-18 19:52:00,54.0,53.0,-100.00,SW,221,0.0,0.0,95,0.00,,,0.90,,2013-03-19 00:52:00,
2013-03-18 20:02:00,53.0,52.0,9.14,SW,221,0.0,0.0,95,0.00,,,0.90,,2013-03-19 01:02:00,
2013-03-18 20:12:00,53.0,52.0,9.14,SW,221,0.0,0.0,95,0.00,,,0.90,,2013-03-19 01:12:00,
2013-03-18 20:22:00,53.0,52.0,-100.00,SW,221,0.0,0.0,95,0.00,,,0.90,,2013-03-19 01:22:00,
2013-03-18 20:32:00,53.0,52.0,32.63,SW,221,0.0,0.0,96,0.00,,,0.90,,2013-03-19 01:32:00,
2013-03-18 20:42:00,53.0,52.0,32.63,SW,221,0.0,0.0,96,0.00,,,0.90,,2013-03-19 01:42:00,
2013-03-18 20:52:00,53.0,52.0,3.30,WNW,293,1.0,5.0,96,0.00,,,0.90,,2013-03-19 01:52:00,
2013-03-18 21:02:00,53.0,52.0,3.30,WNW,284,0.0,4.0,96,0.00,,,0.90,,2013-03-19 02:02:00,
2013-03-18 21:12:00,53.0,52.0,3.30,WNW,284,0.0,4.0,96,0.00,,,0.90,,2013-03-19 02:12:00,
2013-03-18 21:22:00,53.0,52.0,3.30,WNW,284,0.0,0.0,96,0.00,,,0.90,,2013-03-19 02:22:00,
2013-03-18 21:32:00,52.0,51.0,3.30,West,267,1.0,3.0,96,0.00,,,0.90,,2013-03-19 02:32:00,
2013-03-18 21:42:00,52.0,51.0,3.30,West,267,1.0,3.0,96,0.00,,,0.90,,2013-03-19 02:42:00,
2013-03-18 21:52:00,52.0,51.0,3.30,WNW,299,1.0,5.0,96,0.00,,,0.90,,2013-03-19 02:52:00,
2013-03-18 22:02:00,51.0,50.0,3.30,WNW,284,1.0,6.0,96,0.00,,,0.90,,2013-03-19 03:02:00,
2013-03-18 22:12:00,51.0,50.0,3.30,WNW,284,1.0,6.0,96,0.00,,,0.90,,2013-03-19 03:12:00,
2013-03-18 22:22:00,51.0,49.0,24.23,WSW,246,0.0,0.0,94,0.00,,,0.90,,2013-03-19 03:22:00,
2013-03-18 22:32:00,50.0,48.0,-100.00,WSW,246,0.0,0.0,93,0.00,,,0.90,,2013-03-19 03:32:00,
2013-03-18 22:43:00,50.0,48.0,-100.00,WSW,246,0.0,0.0,93,0.00,,,0.90,,2013-03-19 03:43:00,
2013-03-18 22:54:00,50.0,48.0,18.56,NW,313,0.0,4.0,93,0.00,,,0.90,,2013-03-19 03:54:00,
2013-03-18 23:03:00,50.0,48.0,-100.00,WNW,301,0.0,0.0,93,0.00,,,0.90,,2013-03-19 04:03:00,
2013-03-18 23:13:00,50.0,48.0,-100.00,WNW,301,0.0,0.0,93,0.00,,,0.90,,2013-03-19 04:13:00,
2013-03-18 23:23:00,49.0,47.0,10.80,South,185,0.0,4.0,93,0.00,,,0.90,,2013-03-19 04:23:00,
2013-03-18 23:33:00,48.0,46.0,18.80,South,185,0.0,0.0,92,0.00,,,0.90,,2013-03-19 04:33:00,
2013-03-18 23:43:00,48.0,46.0,18.80,South,185,0.0,0.0,92,0.00,,,0.90,,2013-03-19 04:43:00,
2013-03-18 23:52:00,48.0,46.0,-100.00,South,185,0.0,1.0,93,0.00,,,0.90,,2013-03-19 04:52:00,